Tiempo atmosférico en la estación meteorológica de Buitrago del Lozoya, Madrid (1026 m.)



Fecha
DESCASC
Temp. máxima en grados centígrados (hora)
DESCASC
Temp. mínima en grados centígrados (hora)
DESCASC
Temp. media en grados centígrados
DESCASC
Racha de viento máxima en m/sg (hora)
DESCASC
Velocidad máxima media en intervalos de 10 minutos(hora)
DESCASC
Precipitaciones diarias en mm
DESCASC
Precipitaciones de 00:00 a 06:00 en mm
DESCASC
Precipitaciones de 06:00 a 12:00 en mm
DESCASC
Precipitaciones de 12:00 a 18:00 en mm
DESCASC
Precipitaciones de 18:00 a 24:00 en mm
DESCASC
29-10-2020 13.4 (17:20) 2.4 (23:59) 7.9 3.33 (07:00) 1.67 (05:30) 0 0 0 0 0
28-10-2020 11.3 (15:40) 7 (02:40) 9.2 3.89 (13:50) 2.22 (13:50) 0.1 0 0.1 0 0
27-10-2020 14.3 (14:30) 4.2 (00:00) 9.3 8.06 (08:00) 4.44 (08:00) 0 0 0 0 0
26-10-2020 9.7 (14:20) 4.7 (00:00) 7.2 10.28 (05:40) 5.28 (13:30) 0.1 0.1 0 0 0
25-10-2020 10.9 (13:40) 4.4 (00:00) 7.6 13.61 (20:40) 6.94 (20:50) 4.8 0 0 3 1.8
24-10-2020 11 (14:30) 2.2 (00:00) 6.6 5.56 (14:30) 3.06 (14:50) 0 0 0 0 0
23-10-2020 12.7 (15:20) 4.3 (00:00) 8.5 8.61 (15:40) 4.17 (15:40) 6 2.8 0.2 2.8 0.2
22-10-2020 13.1 (16:50) 10 (00:00) 11.6 8.61 (14:40) 5 (13:40) 18.9 1.8 1.9 0.5 14.7
21-10-2020 14.6 (15:20) 10.7 (00:00) 12.7 16.67 (01:10) 8.06 (01:10) 10.4 9.2 0.9 0 0.3
20-10-2020 16.9 (00:10) 10.6 (00:00) 13.8 13.89 (23:10) 6.94 (23:50) 41.5 0 2.8 9.9 28.8
19-10-2020 19.5 (16:10) 1 (00:00) 10.3 9.72 (22:40) 3.61 (23:10) 0 0 0 0 0
18-10-2020 18.2 (16:10) 0.9 (00:00) 9.6 3.89 (14:20) 1.94 (14:20) 0 0 0 0 0
17-10-2020 16.9 (15:10) -0.9 (-00:0) 8 -- (--) 3.33 (14:30) 0 0 0 0 0
16-10-2020 13.6 (15:40) 1.8 (00:00) 7.7 -- (--) 4.17 (16:40) 0 0 0 0 0
15-10-2020 12 (15:00) 4.6 (00:00) 8.3 10.28 (13:30) 5 (11:00) 0 0 0 0 0
14-10-2020 13.3 (18:20) 6.5 (00:00) 9.9 8.06 (13:50) 4.44 (14:50) 0 0 0 0 0
13-10-2020 18.2 (16:00) 12.3 (00:00) 15.3 9.44 (12:50) 5 (12:40) 0 0 0 0 0
12-10-2020 14.6 (16:10) 5.6 (00:00) 10.1 11.11 (11:20) 5.83 (14:00) 0 0 0 0 0
11-10-2020 14 (16:30) 6 (00:00) 10 14.17 (13:00) 7.5 (11:40) 0 0 0 0 0
10-10-2020 20.5 (14:20) 6.9 (00:00) 13.7 10.28 (21:00) 5 (21:30) 0 0 0 0 0
09-10-2020 24.6 (16:10) 7.2 (00:00) 15.9 6.94 (18:50) 3.06 (17:30) 0 0 0 0 0
08-10-2020 21.7 (15:10) 7.3 (00:00) 14.5 5.83 (15:40) 1.94 (16:20) 0 0 0 0 0
07-10-2020 24.1 (16:40) 10.9 (00:00) 17.5 8.61 (06:30) 4.17 (06:10) 0 0 0 0 0
06-10-2020 20.5 (18:50) 8.9 (00:00) 14.7 6.94 (15:40) 4.17 (15:50) 0 0 0 0 0
05-10-2020 15.4 (18:30) 8.2 (00:00) 11.8 9.17 (02:10) 4.44 (10:50) 0 0 0 0 0
04-10-2020 14.6 (15:10) 7 (00:00) 10.8 14.44 (17:00) 6.39 (11:30) 0.5 0 0.5 0 0
03-10-2020 13.1 (15:10) 6.1 (00:00) 9.6 13.06 (12:10) 5.83 (04:40) 0 0 0 0 0
02-10-2020 15.4 (05:10) 6.5 (00:00) 10.9 23.61 (10:10) 10 (10:10) 15.9 0.1 12.3 3.5 0
01-10-2020 19 (18:10) 9.6 (00:00) 14.3 8.61 (22:40) 3.89 (22:40) 0 0 0 0 0

Gráficas

Temp. máximas Temp. mínimas Temp. medias Precipitaciones Rachas de viento máximas Velocidades máximas media en intervalos de 10 minutos

Datos horarios

Fecha y hora oficial Temperatura (ºC) Velocidad del viento (km/h) Dirección del viento Racha (km/h) Dirección de racha Precipitación (mm) Presión (hPa) Tendencia (hPa) Humedad (%)
2020-10-30 23:00:00 5.6 0 Calma 6 Oeste 0 912.6 0.5 77
2020-10-30 22:00:00 6.2 5 Oeste 8 Oeste 0 912.7 1 77
2020-10-30 21:00:00 7 3 Noroeste 6 Noroeste 0 912.4 1 76
2020-10-30 20:00:00 8.7 0 Calma 5 Noroeste 0 912.1 0.7 71
2020-10-30 19:00:00 10.6 0 Calma 5 Noroeste 0 911.7 0.2 61
2020-10-30 18:00:00 15.2 0 Calma 8 Sudeste 0 911.4 -0.2 44
2020-10-30 17:00:00 16.8 4 Sudeste 11 Sudeste 0 911.4 -0.7 40
2020-10-30 16:00:00 17.3 4 Sudeste 11 Sur 0 911.5 -1.2 36
2020-10-30 15:00:00 17.4 5 Este 11 Sudeste 0 911.6 -1.4 33
2020-10-30 14:00:00 17.3 5 Sudeste 14 Sudeste 0 912.1 -1 36
2020-10-30 13:00:00 16.1 4 Este 10 Este 0 912.7 -0.5 36
2020-10-30 12:00:00 14 0 Calma 8 Sudeste 0 913 -- 43
2020-10-30 11:00:00 11.3 0 Calma 5 Este 0 913.1 -- 51
2020-10-30 10:00:00 8 2 Sudeste 6 Sudeste 0 913.2 -- 72
2020-10-30 09:00:00 4.4 0 Calma 6 Nordeste 0 913 -- 87
2020-10-30 08:00:00 0.1 0 Calma 8 Noroeste 0 912.6 -- 86
2020-10-30 07:00:00 0.5 0 Calma 6 Oeste 0.1 912.5 -- 86
2020-10-30 06:00:00 0.1 0 Calma 3 Norte 0 912.8 -- 86
2020-10-30 05:00:00 0.7 0 Calma 6 Noroeste 0 912.7 -- 86
2020-10-30 04:00:00 1.1 0 Calma 5 Noroeste 0 912.4 -- 86
2020-10-30 03:00:00 1 0 Calma 4 Noroeste 0 912.6 -- 85
2020-10-30 02:00:00 1.2 0 Calma 3 Noroeste 0 912.8 -- 84
2020-10-30 01:00:00 1.7 0 Calma 3 Noroeste 0 912.8 -- 84
2020-10-30 00:00:00 2.4 0 Calma 2 Noroeste 0 913.1 -- 83
2020-10-29 23:00:00 3.1 0 Calma 4 Noroeste 0 913.2 -- 82
2020-10-29 22:00:00 4.4 3 Noroeste 5 Noroeste 0 913 -- 81
2020-10-29 21:00:00 5.3 3 Noroeste 5 Noroeste 0 912.8 -- 77
2020-10-29 20:00:00 7.3 0 Calma 6 Nordeste 0 912.5 -- 76
2020-10-29 19:00:00 8.7 0 Calma 4 Nordeste 0 912.4 -- 69
2020-10-29 18:00:00 12.5 0 Calma 5 Sur 0 911.8 -- 57
2020-10-29 17:00:00 13.2 2 Sudeste 6 Este 0 911.8 -- 56
2020-10-29 16:00:00 12.4 0 Calma 9 Sudeste 0 912 -- 58
2020-10-29 15:00:00 12.1 2 Nordeste 11 Este 0 911.9 -- 61
2020-10-29 14:00:00 10.5 2 Este 10 Sudeste 0 912.5 -- 67
2020-10-29 13:00:00 9.5 3 Sur 11 Oeste 0 913 -- 72
2020-10-29 12:00:00 8.9 2 Sudeste 6 Sur 0 913.5 -- 77
2020-10-29 11:00:00 7.4 0 Calma 8 Oeste 0 913.2 -- 84
2020-10-29 10:00:00 6.1 4 Oeste 10 Oeste 0 913.5 -- 85
2020-10-29 09:00:00 5.7 0 Calma 7 Sudoeste 0 913.4 -- 85
2020-10-29 08:00:00 6.1 2 Sur 8 Sudoeste 0 912.6 -- 86
2020-10-29 07:00:00 6.4 6 Oeste 12 Oeste 0 912 -- 85
2020-10-29 06:00:00 6.8 2 Sudoeste 11 Oeste 0 911.5 -- 85
2020-10-29 05:00:00 6.9 2 Sudoeste 8 Sudoeste 0 911 -- 85
2020-10-29 04:00:00 7.1 2 Sudoeste 9 Oeste 0 911.2 -- 85
2020-10-29 03:00:00 7.7 4 Oeste 9 Oeste 0 911.3 -- 85
2020-10-29 02:00:00 8 3 Oeste 10 Oeste 0 911.4 -- 85
2020-10-29 01:00:00 8.6 4 Oeste 9 Oeste 0 911.2 -- 84
2020-10-29 00:00:00 8.9 3 Oeste 8 Oeste 0 911 -- 83
2020-10-28 23:00:00 9.4 3 Oeste 6 Oeste 0 910.6 -- 81
2020-10-28 22:00:00 9.9 3 Oeste 5 Oeste 0 910.6 -- 80
2020-10-28 21:00:00 10.2 2 Sudoeste 5 Sudoeste 0 910.3 -- 77
2020-10-28 20:00:00 10.5 0 Calma 5 Oeste 0 910 -- 76
2020-10-28 19:00:00 10.6 0 Calma 5 Oeste 0 909.2 -- 77
2020-10-28 18:00:00 10.8 3 Sur 8 Sudoeste 0 909.1 -- 76
2020-10-28 17:00:00 10.9 0 Calma 8 Este 0 909 -- 74
2020-10-28 16:00:00 11.1 4 Este 10 Nordeste 0 908.5 -- 75
2020-10-28 15:00:00 10.8 3 Sudeste 12 Sudeste 0 908.5 -- 74
2020-10-28 14:00:00 10.5 6 Sudeste 14 Sudeste 0 908.7 -- 76
2020-10-28 13:00:00 10.8 5 Este 11 Este 0 908.9 -- 74
2020-10-28 12:00:00 9.9 0 Calma 6 Sudeste 0 908.9 -- 77
2020-10-28 11:00:00 8.5 0 Calma 7 Sudeste 0 908.7 -- 82
2020-10-28 10:00:00 8.4 2 Sudeste 10 Sudeste 0 908.2 -- 82
2020-10-28 09:00:00 7.7 0 Calma 5 Este 0 907.5 -- 83
2020-10-28 08:00:00 7.4 0 Calma 9 Este 0 906.8 -- 83
2020-10-28 07:00:00 7.6 0 Calma 7 Este 0.1 906.4 -- 82
2020-10-28 06:00:00 7.8 2 Este 6 Nordeste 0 905.9 -- 81
2020-10-28 05:00:00 7.2 0 Calma 5 Este 0 905.6 -- 80
2020-10-28 04:00:00 7 0 Calma 5 Noroeste 0 905.6 -- 76
2020-10-28 03:00:00 7 0 Calma 6 Oeste 0 905.8 -- 76
2020-10-28 02:00:00 7.9 0 Calma 4 Sudeste 0 905.8 -- 73
2020-10-28 01:00:00 8.5 0 Calma 7 Este 0 906 -- 71
2020-10-28 00:00:00 8.4 3 Nordeste 9 Este 0 906.2 -- 69
2020-10-27 23:00:00 9.2 2 Nordeste 5 Nordeste 0 906 -- 64
2020-10-27 22:00:00 10.6 0 Calma 16 Norte 0 905.8 -- 63
2020-10-27 21:00:00 10.5 6 Norte 18 Norte 0 905.5 -- 62
2020-10-27 20:00:00 10.7 0 Calma 12 Oeste 0 905.4 -- 57
2020-10-27 19:00:00 10.4 0 Calma 13 Norte 0 904.9 -- 56
2020-10-27 18:00:00 11.1 7 Norte 17 Noroeste 0 904.5 -- 52
2020-10-27 17:00:00 12.8 5 Norte 14 Norte 0 904.4 -- 46
2020-10-27 16:00:00 13.8 5 Sur 15 Sur 0 904.4 -- 41
2020-10-27 15:00:00 13.5 9 Sudeste 17 Noroeste 0 904.3 -- 41
2020-10-27 14:00:00 13.5 7 Oeste 21 Oeste 0 904.7 -- 42
2020-10-27 13:00:00 12.9 4 Sur 14 Sur 0 904.8 -- 42
2020-10-27 12:00:00 11 6 Sudeste 15 Sudeste 0 905.3 -- 48
2020-10-27 11:00:00 9.3 5 Nordeste 11 Este 0 905.1 -- 50
2020-10-27 10:00:00 8.2 3 Sudeste 13 Sudeste 0 905.4 -- 56
2020-10-27 09:00:00 6.4 0 Calma 27 Noroeste 0 905.3 -- 61
2020-10-27 08:00:00 6.5 16 Noroeste 29 Noroeste 0 904.8 -- 60
2020-10-27 07:00:00 4.3 0 Calma 7 Noroeste 0 904.9 -- 70
2020-10-27 06:00:00 4.9 3 Nordeste 5 Este 0 904.9 -- 64
2020-10-27 05:00:00 6.4 4 Este 21 Noroeste 0 904.6 -- 59
2020-10-27 04:00:00 5.9 2 Este 7 Sudeste 0 904.7 -- 60
2020-10-27 03:00:00 6.8 5 Noroeste 20 Oeste 0 904.9 -- 54
2020-10-27 02:00:00 6.5 4 Oeste 14 Oeste 0 905.4 -- 57
2020-10-27 01:00:00 6.8 2 Sudoeste 20 Noroeste 0 905.3 -- 54
2020-10-27 00:00:00 7.2 7 Oeste 21 Noroeste 0 905.8 -- 52
2020-10-26 23:00:00 7.1 7 Oeste 30 Oeste 0 905.8 -- 50
2020-10-26 22:00:00 7.3 14 Noroeste 31 Noroeste 0 905.6 -- 50
2020-10-26 21:00:00 7.6 8 Noroeste 21 Oeste 0 905.1 -- 49
2020-10-26 20:00:00 7.4 5 Noroeste 22 Noroeste 0 904.9 -- 48
2020-10-26 19:00:00 7.9 7 Oeste 20 Oeste 0 904.6 -- 48
2020-10-26 18:00:00 8.3 6 Oeste 32 Oeste 0 904.3 -- 43
2020-10-26 17:00:00 8.3 14 Noroeste 29 Noroeste 0 904 -- 45
2020-10-26 16:00:00 8.7 12 Oeste 30 Oeste 0 903.6 -- 43
2020-10-26 15:00:00 8.9 17 Noroeste 36 Oeste 0 903.6 -- 43
2020-10-26 14:00:00 9.1 14 Noroeste 37 Oeste 0 903.7 -- 44
2020-10-26 13:00:00 8.8 14 Noroeste 37 Noroeste 0 903.5 -- 48
2020-10-26 12:00:00 7.5 15 Oeste 32 Noroeste 0 903.9 -- 50
2020-10-26 11:00:00 6.6 12 Oeste 28 Oeste 0 903.7 -- 56
2020-10-26 10:00:00 6.3 14 Noroeste 26 Oeste 0 903 -- 59
2020-10-26 09:00:00 5 7 Oeste 27 Oeste 0 902.5 -- 62
2020-10-26 08:00:00 4.8 10 Oeste 33 Oeste 0 901.6 -- 61
2020-10-26 07:00:00 4.8 8 Oeste 28 Oeste 0 900.7 -- 62
2020-10-26 06:00:00 5.3 10 Oeste 37 Oeste 0.1 900.2 -- 62
2020-10-26 05:00:00 5.6 10 Oeste 28 Noroeste 0 899.4 -- 60
2020-10-26 04:00:00 6 9 Noroeste 26 Oeste 0 899.1 -- 56
2020-10-26 03:00:00 6 4 Oeste 26 Oeste 0 898.8 -- 57
2020-10-26 02:00:00 5.9 15 Noroeste 30 Noroeste 0 899.1 -- 60
2020-10-26 01:00:00 6.3 9 Oeste 24 Oeste 0 899.2 -- 59
2020-10-26 00:00:00 5.6 0 Calma 23 Oeste 0 899.6 -- 60
2020-10-25 23:00:00 6.5 9 Noroeste 27 Oeste 0 899.5 -- 62
2020-10-25 22:00:00 6.5 15 Oeste 37 Noroeste 0 899.5 -- 64
2020-10-25 21:00:00 6.8 18 Noroeste 49 Oeste 0.1 898.6 -- 66
2020-10-25 20:00:00 9.2 10 Oeste 30 Oeste 0.1 898.1 -- 67
2020-10-25 19:00:00 10.4 3 Nordeste 9 Nordeste 1.6 897.9 -- 83
2020-10-25 18:00:00 10.5 0 Calma 12 Sur 1.9 898.3 -- 81
2020-10-25 17:00:00 10.7 6 Sudeste 18 Sur 0.6 898.3 -- 77
2020-10-25 16:00:00 10.7 10 Sur 26 Sur 0.1 898.4 -- 77
2020-10-25 15:00:00 10.5 12 Sudeste 26 Sudeste 0.1 899 -- 76
2020-10-25 14:00:00 10.5 12 Sudeste 22 Sudeste 0.2 900 -- 81
2020-10-25 13:00:00 10.5 5 Sudeste 17 Sudeste 0.1 901 -- 83
2020-10-25 12:00:00 9.3 6 Sudeste 17 Sudeste 0 901.8 -- 87
2020-10-25 11:00:00 8.4 4 Sudeste 11 Sudeste 0 902.3 -- 87
2020-10-25 10:00:00 7.5 3 Sudeste 10 Sudeste 0 903 -- 87
2020-10-25 09:00:00 7 4 Sudeste 11 Sudeste 0 903.1 -- 87
2020-10-25 08:00:00 6.7 0 Calma 6 Este 0 903.3 -- 87
2020-10-25 07:00:00 6.7 0 Calma 8 Sudeste 0 903.4 -- 87
2020-10-25 06:00:00 6.5 3 Este 6 Sudeste 0 903.7 -- 87
2020-10-25 05:00:00 6.2 3 Norte 5 Noroeste 0 904 -- 87
2020-10-25 04:00:00 5.6 0 Calma 5 Este 0 904.5 -- 87
2020-10-25 03:00:00 4.6 0 Calma 5 Oeste 0 905.3 -- 86
2020-10-25 02:00:00 4.5 0 Calma 7 Nordeste 0 905.9 -- 84
2020-10-25 01:00:00 5.2 0 Calma 8 Norte 0 906.7 -- 82
2020-10-25 00:00:00 6.2 0 Calma 5 Noroeste 0 907.7 -- 80
2020-10-24 23:00:00 7.5 0 Calma 10 Oeste 0 907.8 -- 76
2020-10-24 22:00:00 8.1 0 Calma 4 Oeste 0 907.7 -- 76
2020-10-24 21:00:00 9.1 0 Calma 4 Sudeste 0 908.1 -- 75
2020-10-24 20:00:00 9.3 0 Calma 4 Sudoeste 0 908.2 -- 72
2020-10-24 19:00:00 9.1 0 Calma 10 Noroeste 0 908.3 -- 71
2020-10-24 18:00:00 9.1 4 Norte 10 Norte 0 908.3 -- 71
2020-10-24 17:00:00 9 4 Sudeste 13 Sudeste 0 909 -- 73
2020-10-24 16:00:00 8.9 7 Sudeste 18 Sudeste 0 909.2 -- 74
2020-10-24 15:00:00 8.9 9 Sudeste 20 Sur 0 909.6 -- 71
2020-10-24 14:00:00 10.4 6 Sudeste 16 Sudeste 0 909.9 -- 70
2020-10-24 13:00:00 9.4 7 Sudeste 15 Sudeste 0 910.5 -- 71
2020-10-24 12:00:00 9.4 5 Este 13 Este 0 910.6 -- 65
2020-10-24 11:00:00 8.4 3 Sudeste 6 Sudeste 0 910.5 -- 76
2020-10-24 10:00:00 6.1 0 Calma 0 Calma 0 910.5 -- 85
2020-10-24 09:00:00 2.5 0 Calma 8 Noroeste 0 910.2 -- 85
2020-10-24 08:00:00 2.5 0 Calma 4 Oeste 0 909.9 -- 84
2020-10-24 07:00:00 4.3 0 Calma 12 Oeste 0 910.3 -- 84
2020-10-24 06:00:00 4.3 3 Oeste 8 Oeste 0 910.4 -- 85
2020-10-24 05:00:00 4.6 0 Calma 5 Noroeste 0 910.2 -- 83
2020-10-24 04:00:00 5.5 4 Noroeste 8 Oeste 0 910.2 -- 83
2020-10-24 03:00:00 7 2 Oeste 8 Sudoeste 0 910.4 -- 82
2020-10-24 02:00:00 7.1 4 Noroeste 9 Sudoeste 0 910.4 -- 83
2020-10-24 01:00:00 7 3 Noroeste 5 Noroeste 0 910.4 -- 81
2020-10-24 00:00:00 7.1 2 Sur 9 Oeste 0 910.4 -- 81
2020-10-23 23:00:00 7.3 0 Calma 6 Sur 0 910.1 -- 81
2020-10-23 22:00:00 7.6 4 Noroeste 8 Oeste 0 909.9 -- 81
2020-10-23 21:00:00 7.4 2 Noroeste 9 Sudoeste 0 909.5 -- 76
2020-10-23 20:00:00 8.3 3 Norte 5 Este 0 908.8 -- 72
2020-10-23 19:00:00 10.4 0 Calma 19 Noroeste 0.2 908.3 -- 64
2020-10-23 18:00:00 11.1 4 Oeste 19 Oeste 0 908.1 -- 51
2020-10-23 17:00:00 11.3 10 Noroeste 23 Noroeste 0 907.8 -- 53
2020-10-23 16:00:00 11.7 13 Noroeste 31 Noroeste 0 907.4 -- 54
2020-10-23 15:00:00 11.9 8 Oeste 20 Oeste 0 907.2 -- 58
2020-10-23 14:00:00 10.4 0 Calma 11 Oeste 2.3 907.3 -- 71
2020-10-23 13:00:00 9.7 0 Calma 8 Este 0.5 907.7 -- 80
2020-10-23 12:00:00 8.7 4 Sudeste 7 Sudeste 0 907.1 -- 87
2020-10-23 11:00:00 7 2 Este 8 Nordeste 0.1 907 -- 87
2020-10-23 10:00:00 6.4 3 Nordeste 6 Nordeste 0 906.4 -- 87
2020-10-23 09:00:00 5.2 2 Nordeste 9 Nordeste 0 905.6 -- 86
2020-10-23 08:00:00 4.3 0 Calma 6 Sur 0 905.1 -- 85
2020-10-23 07:00:00 4.8 0 Calma 10 Sur 0.1 904.5 -- 85
2020-10-23 06:00:00 5.4 0 Calma 5 Norte 0 904 -- 84
2020-10-23 05:00:00 6.5 0 Calma 5 Norte 0 903.6 -- 83
2020-10-23 04:00:00 7.9 0 Calma 5 Este 0 903.3 -- 82
2020-10-23 03:00:00 8.6 0 Calma 15 Noroeste 2.3 903.1 -- 81
2020-10-23 02:00:00 9.5 2 Nordeste 6 Nordeste 0 902.9 -- 85
2020-10-23 01:00:00 9.8 2 Nordeste 9 Nordeste 0.5 902.5 -- 85
2020-10-23 00:00:00 10.1 0 Calma 8 Oeste 1.3 902.6 -- 85
2020-10-22 23:00:00 10.1 2 Este 9 Este 1.4 902 -- 84
2020-10-22 22:00:00 10.4 0 Calma 8 Nordeste 3.6 901.9 -- 84
2020-10-22 21:00:00 10.6 4 Este 12 Este 2.2 901.5 -- 83
2020-10-22 20:00:00 11 0 Calma 10 Sudeste 6 900.7 -- 83
2020-10-22 19:00:00 12 0 Calma 10 Sur 0.2 900.1 -- 82
2020-10-22 18:00:00 12.1 5 Este 23 Este 0 899.9 -- 80
2020-10-22 17:00:00 12.8 9 Sudeste 25 Sudeste 0.1 899.8 -- 77
2020-10-22 16:00:00 12.7 10 Sudeste 22 Sudeste 0 899.6 -- 76
2020-10-22 15:00:00 12.8 14 Sudeste 31 Sudeste 0.2 899.9 -- 81
2020-10-22 14:00:00 12.8 14 Sudeste 28 Sudeste 0 900.2 -- 82
2020-10-22 13:00:00 12 15 Sudeste 27 Sudeste 0.2 900.8 -- 85
2020-10-22 12:00:00 11.7 13 Sudeste 24 Sudeste 0.8 900.3 -- 86
2020-10-22 11:00:00 11.7 8 Sudeste 13 Este 0.8 900.2 -- 86
2020-10-22 10:00:00 11.1 4 Sudeste 12 Este 0 900.1 -- 86
2020-10-22 09:00:00 10.8 5 Este 19 Sudeste 0 899.4 -- 86
2020-10-22 08:00:00 10.7 8 Sudeste 18 Sudeste 0.2 899.1 -- 87
2020-10-22 07:00:00 10.8 5 Sudeste 13 Sur 0.1 899.3 -- 87
2020-10-22 06:00:00 10.8 5 Sudeste 23 Sudeste 0 899.1 -- 87
2020-10-22 05:00:00 11 8 Sudeste 14 Sudeste 0.1 899.1 -- 87
2020-10-22 04:00:00 11.2 8 Sudeste 14 Sudeste 0.7 899.3 -- 86
2020-10-22 03:00:00 11.5 4 Este 21 Sudeste 0.1 899.3 -- 83
2020-10-22 02:00:00 11.3 10 Sudeste 22 Sudeste 0 899.3 -- 83
2020-10-22 01:00:00 11.5 13 Sudeste 24 Sudeste 0.9 899.3 -- 83
2020-10-22 00:00:00 11.7 13 Sudeste 26 Sudeste 0.2 899.4 -- 81
2020-10-21 23:00:00 12.1 15 Sudeste 32 Sudeste 0 899.3 -- 81
2020-10-21 22:00:00 12.1 12 Sudeste 24 Sur 0.1 899 -- 82
2020-10-21 21:00:00 12.5 10 Sudeste 19 Sur 0 898.9 -- 77
2020-10-21 20:00:00 12.5 12 Sudeste 21 Sudeste 0 898.4 -- 72
2020-10-21 19:00:00 13.1 11 Sudeste 22 Sudeste 0 898.3 -- 73
2020-10-21 18:00:00 13.3 11 Sudeste 25 Sudeste 0 897.7 -- 67
2020-10-21 17:00:00 13.9 14 Sudeste 32 Sur 0 897.4 -- 63
2020-10-21 16:00:00 13.8 13 Sudeste 30 Sudeste 0 897.3 -- 64
2020-10-21 15:00:00 14.3 15 Sudeste 26 Sudeste 0 897.3 -- 70
2020-10-21 14:00:00 13.1 11 Sudeste 29 Sur 0 897.3 -- 73
2020-10-21 13:00:00 13.3 14 Sur 31 Sudeste 0 897.2 -- 77
2020-10-21 12:00:00 11.9 13 Sudeste 28 Sudeste 0.2 896.9 -- 86
2020-10-21 11:00:00 11.4 6 Sudeste 19 Sudeste 0.4 896.8 -- 83
2020-10-21 10:00:00 11.5 6 Sudeste 22 Sudeste 0 896.2 -- 76
2020-10-21 09:00:00 10.7 12 Sudeste 29 Sudeste 0 895.7 -- 84
2020-10-21 08:00:00 10.9 14 Sudeste 26 Sudeste 0.3 894.7 -- 85
2020-10-21 07:00:00 11 9 Sudeste 31 Sur 0 894.3 -- 81
2020-10-21 06:00:00 11 16 Sudeste 37 Sudeste 0 894.2 -- 81
2020-10-21 05:00:00 11.4 4 Este 42 Sudeste 0.2 893.8 -- 75
2020-10-21 04:00:00 11.6 19 Sur 43 Sudeste 0.1 893.1 -- 77
2020-10-21 03:00:00 12.2 14 Sur 45 Sur 0.1 893.7 -- 77
2020-10-21 02:00:00 13.8 19 Sur 60 Sur 1.9 892.6 -- 71
2020-10-21 01:00:00 13 21 Sudeste 46 Sudeste 6.9 890.3 -- 83
2020-10-21 00:00:00 13 23 Sudeste 50 Sudeste 6.6 890.4 -- 85
2020-10-20 23:00:00 12.6 21 Sudeste 39 Sudeste 6.8 890 -- 85
2020-10-20 22:00:00 11.9 15 Sudeste 29 Este 6.1 891.3 -- 84
2020-10-20 21:00:00 12.3 5 Este 22 Este 3.9 891.4 -- 83
2020-10-20 20:00:00 12.5 7 Este 37 Sur 2.7 892.4 -- 77
2020-10-20 19:00:00 12.5 2 Nordeste 23 Sudoeste 2.7 892.5 -- 81
2020-10-20 18:00:00 12.2 4 Sudeste 16 Sudoeste 4.5 893.7 -- 81
2020-10-20 17:00:00 12.5 9 Sur 17 Sudeste 0.1 893.3 -- 81
2020-10-20 16:00:00 12.1 8 Sudeste 16 Sur 0 894.6 -- 82
2020-10-20 15:00:00 11.4 5 Sur 20 Sudeste 0.5 896.1 -- 84
2020-10-20 14:00:00 11 8 Sudeste 23 Sudeste 2 897.8 -- 86
2020-10-20 13:00:00 10.9 8 Sudeste 19 Sudeste 2.8 899 -- 86
2020-10-20 12:00:00 10.7 5 Sudeste 12 Sudeste 1.9 899.6 -- 86
2020-10-20 11:00:00 10.6 2 Este 6 Nordeste 0.7 900.1 -- 85
2020-10-20 10:00:00 10.8 2 Norte 12 Noroeste 0.1 900.1 -- 83
2020-10-20 09:00:00 11 3 Nordeste 7 Nordeste 0 899.7 0.9 80
2020-10-20 08:00:00 11.5 0 Calma 18 Sur 0.1 899.9 -- 75
2020-10-20 07:00:00 12.1 11 Sudeste 31 Sudeste 0 899.7 -- 62
2020-10-20 06:00:00 14.5 3 Sur 17 Sudeste 0 898.8 -0.9 46
2020-10-20 05:00:00 14.5 6 Este 18 Este 0 899 -1.1 46
2020-10-20 04:00:00 14.6 11 Sudeste 24 Sudeste 0 899.4 -- 46
2020-10-20 03:00:00 15.1 14 Sudeste 23 Sudeste 0 899.7 -0.9 45
2020-10-20 02:00:00 15.1 17 Sudeste 27 Sudeste 0 900.1 -0.8 43
2020-10-20 01:00:00 16.2 11 Sudeste 27 Sudeste 0 900.3 -- 40
2020-10-20 00:00:00 16.3 4 Sur 22 Sudeste 0 900.6 -0.5 38
2020-10-19 23:00:00 16.6 13 Sudeste 35 Sudeste 0 900.9 -0.2 39
2020-10-19 22:00:00 12.4 0 Calma 12 Oeste 0 901 -- 52
2020-10-19 21:00:00 12.1 0 Calma 10 Oeste 0 901.1 -- 52
2020-10-19 20:00:00 12.3 0 Calma 7 Oeste 0 901.1 -1.6 47
2020-10-19 19:00:00 16.8 0 Calma 5 Este 0 901.5 -- 38
2020-10-19 18:00:00 17.7 2 Este 12 Sudeste 0 902.1 -- 34
2020-10-19 17:00:00 17.9 7 Sudeste 17 Sur 0 902.7 -- 33
2020-10-19 16:00:00 19.4 5 Sur 23 Sudeste 0 902.6 -- 31
2020-10-19 15:00:00 18.1 8 Sudeste 19 Sudeste 0 903.4 -- 36
2020-10-19 14:00:00 17.2 6 Sudeste 19 Sudeste 0 904.4 -- 38
2020-10-19 13:00:00 15.6 7 Este 16 Este 0 904.8 -- 41
2020-10-19 12:00:00 14.5 0 Calma 6 Sur 0 905.2 -- 48
2020-10-19 11:00:00 9.9 0 Calma 7 Oeste 0 905.4 -- 66
2020-10-19 10:00:00 6.5 0 Calma 4 Nordeste 0 905.5 -- 76
2020-10-19 09:00:00 2.8 3 Noroeste 8 Noroeste 0 905.1 -- 87
2020-10-19 08:00:00 1.3 0 Calma 7 Noroeste 0 904.9 -- 87
2020-10-19 07:00:00 1.2 2 Noroeste 5 Oeste 0 905.2 -- 87
2020-10-19 06:00:00 2 0 Calma 10 Oeste 0 905.2 -- 86
2020-10-19 05:00:00 2.4 0 Calma 7 Noroeste 0 905.5 -- 86
2020-10-19 04:00:00 2.5 3 Noroeste 4 Noroeste 0 906.1 -- 84
2020-10-19 03:00:00 3.4 0 Calma 6 Noroeste 0 906.4 -- 84
2020-10-19 02:00:00 4.1 0 Calma 6 Oeste 0 906.7 -- 81
2020-10-19 01:00:00 4.5 0 Calma 4 Oeste 0 906.7 -- 77
2020-10-19 00:00:00 5.5 0 Calma 4 Noroeste 0 907 -- 75
2020-10-18 23:00:00 6.5 0 Calma 5 Oeste 0 906.6 -- 73
2020-10-18 22:00:00 7 0 Calma 5 Noroeste 0 906.5 -- 68
2020-10-18 21:00:00 8.5 0 Calma 7 Noroeste 0 906.3 -- 61
2020-10-18 20:00:00 11.8 7 Noroeste 9 Noroeste 0 906.2 -- 50
2020-10-18 19:00:00 14.5 0 Calma 7 Este 0 906 -- 41
2020-10-18 18:00:00 16.9 4 Sudeste 12 Sudeste 0 905.9 -- 35
2020-10-18 17:00:00 17.3 5 Sudeste 12 Sudeste 0 905.9 -- 33
2020-10-18 16:00:00 18 4 Este 12 Este 0 906.3 -- 33
2020-10-18 15:00:00 17.4 5 Sudeste 14 Sur 0 906.4 -- 34
2020-10-18 14:00:00 17 4 Sudeste 12 Este 0 907.3 -- 35
2020-10-18 13:00:00 16.8 3 Sudeste 11 Sudeste 0 907.4 -- 38
2020-10-18 12:00:00 14.5 2 Sudeste 8 Sur 0 907.5 -- 47
2020-10-18 11:00:00 10.3 2 Oeste 9 Oeste 0 907.9 -- 63
2020-10-18 10:00:00 4.8 4 Oeste 12 Oeste 0 907.5 -- 84
2020-10-18 09:00:00 2.3 2 Nordeste 5 Nordeste 0 906.6 -- 87
2020-10-18 08:00:00 1.3 0 Calma 5 Noroeste 0 906.6 -- 85
2020-10-18 07:00:00 1.8 0 Calma 9 Oeste 0 906.3 -- 84
2020-10-18 06:00:00 1.1 0 Calma 6 Oeste 0 905.9 -- 83
2020-10-18 05:00:00 1.7 2 Noroeste 5 Noroeste 0 905.9 -- 83
2020-10-18 04:00:00 2 0 Calma 9 Oeste 0 906.1 -- 80
2020-10-18 03:00:00 2.1 2 Noroeste 8 Noroeste 0 906 -- 77
2020-10-18 02:00:00 2.4 0 Calma 8 Noroeste 0 906 -- 77
2020-10-18 01:00:00 2.7 2 Noroeste 6 Oeste 0 906.1 -- 75
2020-10-18 00:00:00 3.5 3 Noroeste 8 Noroeste 0 906 -- 73
2020-10-17 23:00:00 4.6 2 Noroeste 7 Noroeste 0 905.3 -- 68
2020-10-17 22:00:00 5.6 3 Noroeste 5 Noroeste 0 905.1 -- 62
2020-10-17 21:00:00 7.5 2 Noroeste 7 Nordeste 0 904.9 -- 53
2020-10-17 20:00:00 10.2 4 Norte 7 Noroeste 0 904.2 -- 45
2020-10-17 19:00:00 14.8 4 Noroeste 17 Oeste 0 903.6 -- 33
2020-10-17 18:00:00 16.7 8 Noroeste 20 Noroeste 0 903.2 -- 31
2020-10-17 17:00:00 16 3 Sudoeste 15 Sudeste 0 903.2 -- 34
2020-10-17 16:00:00 16.6 7 Sudeste 24 Sudeste 0 902.9 -- 35
2020-10-17 15:00:00 16.3 6 Sudeste -- -- 0 903.1 -- 35
2020-10-17 14:00:00 14.8 5 Sudeste 13 Sudeste 0 903.3 -- 36
2020-10-17 13:00:00 13.4 3 Este 10 Este 0 903.7 -- 40
2020-10-17 12:00:00 11.4 0 Calma 5 Sur 0 903.8 -- 48
2020-10-17 11:00:00 8 2 Sudeste 6 Oeste 0 903.6 -- 63
2020-10-17 10:00:00 3.2 4 Oeste 7 Sudoeste 0 903.3 -- 75
2020-10-17 09:00:00 0.1 0 Calma 6 Oeste 0 903 -- 84
2020-10-17 08:00:00 -0.9 3 Noroeste 5 Noroeste 0 903 -- 83
2020-10-17 07:00:00 -0.1 0 Calma 9 Noroeste 0 902.6 -- 81
2020-10-17 06:00:00 -0.5 2 Noroeste 8 Oeste 0 902.6 -- 82
2020-10-17 05:00:00 -0.3 3 Noroeste 6 Oeste 0 902.6 -- 83
2020-10-17 04:00:00 -0.2 0 Calma 8 Sudoeste 0 902.8 -- 83
2020-10-17 03:00:00 -0.4 2 Noroeste 5 Oeste 0 903.2 -- 81
2020-10-17 02:00:00 0.6 0 Calma 8 Oeste 0 903.3 -- 79
2020-10-17 01:00:00 0.8 3 Oeste 5 Oeste 0 903.5 -- 77
2020-10-17 00:00:00 1.8 2 Noroeste 6 Noroeste 0 903.6 -- 73
2020-10-16 23:00:00 2.8 5 Oeste 9 Oeste 0 904.1 -- 68
2020-10-16 22:00:00 4.5 0 Calma 5 Noroeste 0 903.9 -- 60
2020-10-16 21:00:00 6 0 Calma 7 Sudeste 0 903.6 1.2 52
2020-10-16 20:00:00 8.7 0 Calma 16 Norte 0 903.1 -- 45
2020-10-16 19:00:00 11.2 8 Nordeste 21 Norte 0 902.5 -- 41
2020-10-16 18:00:00 12.7 6 Noroeste 22 Noroeste 0 902.4 -- 41
2020-10-16 17:00:00 12.2 13 Noroeste 27 Noroeste 0 902.6 -- 41
2020-10-16 16:00:00 13.2 13 Noroeste 25 Noroeste 0 902.7 -- 41
2020-10-16 15:00:00 13 10 Nordeste -- -- 0 902.9 -- 39
2020-10-16 14:00:00 12.1 12 Noroeste -- -- 0 903.7 -- 42
2020-10-16 13:00:00 11.8 9 Norte 22 Noroeste 0 904.2 -- 41
2020-10-16 12:00:00 9.5 11 Noroeste 24 Noroeste 0 904.5 -- 50
2020-10-16 11:00:00 8.5 10 Norte 24 Norte 0 904.3 -0.1 55
2020-10-16 10:00:00 6.4 9 Noroeste 18 Noroeste 0 904.3 -0.3 63
2020-10-16 09:00:00 4.4 5 Norte 16 Noroeste 0 904.4 -0.1 69
2020-10-16 08:00:00 3.1 7 Norte 17 Norte 0 904.4 -- 71
2020-10-16 07:00:00 3.4 6 Norte 19 Norte 0 904.6 -- 68
2020-10-16 06:00:00 3 9 Norte 18 Norte 0 904.5 -- 67
2020-10-16 05:00:00 4.6 6 Noroeste 17 Noroeste 0 904.4 -- 63
2020-10-16 04:00:00 4.9 9 Noroeste 24 Noroeste 0 904.4 -- 62
2020-10-16 03:00:00 3 3 Noroeste 23 Oeste 0 905 -- 65
2020-10-16 02:00:00 4.9 4 Noroeste 26 Norte 0 904.7 -- 62
2020-10-16 01:00:00 4.7 10 Noroeste 25 Noroeste 0 904.8 -- 64
2020-10-16 00:00:00 5 4 Oeste 19 Noroeste 0 904.9 -- 65
2020-10-15 23:00:00 5.8 9 Norte 21 Noroeste 0 904.6 -- 63
2020-10-15 22:00:00 6.6 9 Noroeste 23 Noroeste 0 904.3 -- 61
2020-10-15 21:00:00 7.6 6 Norte 24 Norte 0 904.1 -- 57
2020-10-15 20:00:00 8.9 7 Norte 21 Norte 0 903.7 -- 52
2020-10-15 19:00:00 9.6 9 Noroeste 25 Noroeste 0 903.4 -- 51
2020-10-15 18:00:00 10.2 9 Noroeste 23 Noroeste 0 903.1 -0.1 53
2020-10-15 17:00:00 10.6 11 Noroeste 27 Oeste 0 902.9 -- 51
2020-10-15 16:00:00 11 10 Oeste 25 Oeste 0 902.9 -- 52
2020-10-15 15:00:00 11.3 13 Noroeste 29 Oeste 0 903.2 -- 51
2020-10-15 14:00:00 10.8 17 Noroeste 37 Oeste 0 903.6 -- 52
2020-10-15 13:00:00 10.9 16 Noroeste 33 Noroeste 0 903.5 -- 54
2020-10-15 12:00:00 9 16 Noroeste 31 Noroeste 0 903.8 -- 57
2020-10-15 11:00:00 8.1 18 Noroeste 31 Noroeste 0 903.6 -- 60
2020-10-15 10:00:00 7.2 13 Noroeste 28 Noroeste 0 903 -- 64
2020-10-15 09:00:00 6.3 12 Noroeste 27 Noroeste 0 902.8 -- 66
2020-10-15 08:00:00 6.2 15 Noroeste 25 Noroeste 0 902.8 -- 66
2020-10-15 07:00:00 5.3 8 Noroeste 23 Noroeste 0 902.7 -- 68
2020-10-15 06:00:00 5.8 12 Noroeste 24 Noroeste 0 902.5 -- 66
2020-10-15 05:00:00 5.7 12 Noroeste 24 Noroeste 0 902.6 -- 66
2020-10-15 04:00:00 5.9 13 Noroeste 27 Noroeste 0 902.7 -- 66
2020-10-15 03:00:00 5.5 12 Noroeste 26 Noroeste 0 902.5 -- 67
2020-10-15 02:00:00 5.8 12 Noroeste 22 Noroeste 0 902.6 -- 64
2020-10-15 01:00:00 6.4 8 Noroeste 23 Noroeste 0 902.2 -- 63
2020-10-15 00:00:00 6.5 7 Noroeste 22 Norte 0 902.3 -- 62
2020-10-14 23:00:00 7.6 12 Noroeste 28 Noroeste 0 901.9 -- 58
2020-10-14 22:00:00 8.6 5 Norte 25 Nordeste 0 901.3 -- 56
2020-10-14 21:00:00 9.5 3 Norte 13 Nordeste 0 900.6 -- 50
2020-10-14 20:00:00 9.8 0 Calma 8 Sudoeste 0 900 -- 48
2020-10-14 19:00:00 12.4 4 Sudoeste 19 Noroeste 0 899.9 -- 40
2020-10-14 18:00:00 12.7 9 Oeste 28 Noroeste 0 899.7 -- 43
2020-10-14 17:00:00 11.9 10 Oeste 27 Oeste 0 899.5 -- 45
2020-10-14 16:00:00 11.6 12 Oeste 29 Noroeste 0 899.5 -- 46
2020-10-14 15:00:00 11.4 8 Noroeste 28 Noroeste 0 899.6 -- 50
2020-10-14 14:00:00 10.6 10 Noroeste 29 Noroeste 0 899.9 -- 54
2020-10-14 13:00:00 8.7 3 Noroeste 19 Noroeste 0 900.1 -- 60
2020-10-14 12:00:00 8.1 3 Noroeste 16 Oeste 0 900.4 -- 62
2020-10-14 11:00:00 8 7 Norte 25 Norte 0 900.1 -- 63
2020-10-14 10:00:00 7.8 9 Noroeste 17 Oeste 0 900 -- 63
2020-10-14 09:00:00 7.6 3 Norte 14 Norte 0 899.4 -- 63
2020-10-14 08:00:00 7.4 4 Noroeste 16 Noroeste 0 899.2 -- 63
2020-10-14 07:00:00 7.7 5 Noroeste 19 Nordeste 0 899.1 -- 63
2020-10-14 06:00:00 8 6 Noroeste 17 Norte 0 899 -- 63
2020-10-14 05:00:00 8.3 5 Norte 18 Nordeste 0 898.9 -- 62
2020-10-14 04:00:00 8.7 9 Norte 23 Norte 0 899 -- 63
2020-10-14 03:00:00 9.3 13 Oeste 24 Oeste 0 899.3 -- 63
2020-10-14 02:00:00 11.2 4 Norte 19 Noroeste 0 899.2 -- 60
2020-10-14 01:00:00 12.1 6 Oeste 20 Oeste 0 899.7 -- 56
2020-10-14 00:00:00 13.1 6 Oeste 25 Oeste 0 899.8 -- 50
2020-10-13 23:00:00 14.4 9 Oeste 26 Oeste 0 899.7 -- 47
2020-10-13 22:00:00 15.1 10 Oeste 24 Oeste 0 899.7 -- 48
2020-10-13 21:00:00 14 7 Noroeste 13 Noroeste 0 899.8 -- 52
2020-10-13 20:00:00 14.8 5 Noroeste 14 Oeste 0 899.7 -- 48
2020-10-13 19:00:00 16.9 8 Noroeste 20 Oeste 0 900.2 -- 43
2020-10-13 18:00:00 17.1 9 Oeste 24 Noroeste 0 900.3 -- 43
2020-10-13 17:00:00 17.2 14 Noroeste 27 Noroeste 0 901 -- 46
2020-10-13 16:00:00 17.7 14 Oeste 32 Noroeste 0 901.4 -- 44
2020-10-13 15:00:00 16.9 10 Oeste 28 Oeste 0 902.6 -- 52
2020-10-13 14:00:00 16.4 15 Oeste 32 Oeste 0 903.5 -- 57
2020-10-13 13:00:00 14.7 18 Noroeste 34 Oeste 0 904.2 -- 60
2020-10-13 12:00:00 14.5 15 Noroeste 32 Noroeste 0 904.3 0.1 60
2020-10-13 11:00:00 14.2 17 Noroeste 30 Noroeste 0 904.5 -- 61
2020-10-13 10:00:00 -- -- -- -- -- -- -- -- --
2020-10-13 09:00:00 13.1 7 Noroeste 19 Oeste 0 904.2 -- 60
2020-10-13 08:00:00 13.1 5 Noroeste 14 Oeste 0 904.6 -- 56
2020-10-13 07:00:00 12.7 3 Oeste 15 Sudoeste 0 904.3 -- 54
2020-10-13 06:00:00 12.5 4 Noroeste 14 Oeste 0 904.9 -1.2 51
2020-10-13 05:00:00 13 7 Oeste -- -- -- 905 -- 48
2020-10-13 04:00:00 -- -- -- -- -- -- -- -- --
2020-10-13 03:00:00 13.3 10 Noroeste 30 Noroeste 0 906.1 -1 46
2020-10-13 02:00:00 13.9 8 Noroeste 28 Sudoeste 0 906.4 -- 45
2020-10-13 01:00:00 -- -- -- -- -- -- -- -- --
2020-10-13 00:00:00 13 14 Noroeste 31 Oeste 0 907.1 -0.9 45
2020-10-12 23:00:00 12.6 12 Noroeste 24 Noroeste 0 907.3 -- 43
2020-10-12 22:00:00 9.8 0 Calma 10 Sudoeste 0 907.8 -0.7 50
2020-10-12 21:00:00 10.9 0 Calma 15 Oeste 0 908 -- 46
2020-10-12 20:00:00 11.8 6 Noroeste 22 Noroeste 0 908.3 -0.3 43
2020-10-12 19:00:00 13.2 10 Noroeste 26 Noroeste 0 908.5 -- 40
2020-10-12 18:00:00 14 9 Noroeste 23 Noroeste 0 908.4 -0.9 39
2020-10-12 17:00:00 13.8 14 Noroeste 32 Norte 0 908.6 -- 41
2020-10-12 16:00:00 14.2 10 Norte 33 Noroeste 0 908.7 -- 41
2020-10-12 15:00:00 13.2 16 Noroeste 35 Noroeste 0 909.3 -1.3 43
2020-10-12 14:00:00 12.3 21 Noroeste 39 Noroeste 0 910 -- 46
2020-10-12 13:00:00 11.4 18 Noroeste 36 Noroeste 0 910.1 -0.5 51
2020-10-12 12:00:00 10.8 12 Noroeste 40 Noroeste 0 910.6 -- 55
2020-10-12 11:00:00 9 20 Noroeste 36 Oeste 0 910.6 -- 59
2020-10-12 10:00:00 7.9 17 Noroeste 37 Noroeste 0 910.6 -- 63
2020-10-12 09:00:00 7.2 16 Noroeste 37 Noroeste 0 910.6 -- 63
2020-10-12 08:00:00 6 9 Norte 31 Norte 0 910.5 -0.4 71
2020-10-12 07:00:00 6 8 Norte 35 Noroeste 0 910.5 -- 68
2020-10-12 06:00:00 6 9 Noroeste 24 Noroeste 0 910.6 -0.9 68
2020-10-12 05:00:00 6.2 9 Noroeste 27 Noroeste 0 910.9 -- 69
2020-10-12 04:00:00 -- -- -- -- -- -- -- -- --
2020-10-12 03:00:00 6 6 Noroeste 25 Noroeste 0 911.5 -- 68
2020-10-12 02:00:00 6.4 5 Noroeste 15 Noroeste 0 912 0.4 67
2020-10-12 01:00:00 6.4 5 Noroeste 32 Noroeste 0 912 -- 63
2020-10-12 00:00:00 7.1 11 Noroeste 33 Norte 0 911.6 -- 62
2020-10-11 23:00:00 7.3 6 Noroeste 26 Norte 0 911.6 0.7 58
2020-10-11 22:00:00 7.4 6 Noroeste 21 Noroeste 0 911.4 -- 53
2020-10-11 21:00:00 -- -- -- -- -- -- -- -- --
2020-10-11 20:00:00 -- -- -- -- -- -- -- -- --
2020-10-11 19:00:00 11.5 15 Noroeste 34 Noroeste 0 910.2 -- 43
2020-10-11 18:00:00 12.9 16 Norte 36 Oeste 0 910.1 -0.5 41
2020-10-11 17:00:00 13.2 14 Noroeste 36 Noroeste 0 910.3 -0.6 42
2020-10-11 16:00:00 13.5 17 Noroeste 36 Norte 0 910.3 -- 42
2020-10-11 15:00:00 13.1 18 Noroeste 41 Noroeste 0 910.6 -- 43
2020-10-11 14:00:00 11.8 24 Noroeste 50 Noroeste 0 910.9 -- 46
2020-10-11 13:00:00 10.6 27 Noroeste 51 Norte 0 911.2 -- 49
2020-10-11 12:00:00 9.6 24 Noroeste 48 Noroeste 0 911.2 -- 54
2020-10-11 11:00:00 8.5 25 Noroeste 45 Noroeste 0 911.5 -- 59
2020-10-11 10:00:00 7.8 22 Noroeste 44 Noroeste 0 910.6 -- 62
2020-10-11 09:00:00 6.7 21 Noroeste 46 Noroeste 0 910.3 -- 66
2020-10-11 08:00:00 6.4 23 Noroeste 45 Norte 0 910.5 -- 69
2020-10-11 07:00:00 7 20 Noroeste 39 Noroeste 0 910.3 -- 68
2020-10-11 06:00:00 7.2 11 Noroeste 27 Norte 0 910.3 -- 68
2020-10-11 05:00:00 7.7 8 Noroeste 26 Noroeste 0 910.3 -- 64
2020-10-11 04:00:00 7.6 0 Calma 16 Sudoeste 0 909.9 -- 60
2020-10-11 03:00:00 8.4 3 Oeste 23 Norte 0 910.8 -- 57
2020-10-11 02:00:00 9.6 11 Noroeste 39 Noroeste 0 910.9 -- 54
2020-10-11 01:00:00 9.5 0 Calma 14 Noroeste 0 911.1 -- 54
2020-10-11 00:00:00 9 4 Sudeste 26 Norte 0 911 -- 56
2020-10-10 23:00:00 10.5 8 Nordeste 24 Nordeste 0 911 -- 54
2020-10-10 22:00:00 11.8 10 Norte 31 Noroeste 0 910.2 -- 51
2020-10-10 21:00:00 12.7 17 Noroeste 37 Norte 0 909.9 -- 55
2020-10-10 20:00:00 13.8 13 Noroeste 28 Noroeste 0 909.9 -- 52
2020-10-10 19:00:00 17 10 Norte 29 Norte 0 909.2 -- 45
2020-10-10 18:00:00 19 7 Norte 24 Norte 0 908.7 -- 38
2020-10-10 17:00:00 19.4 9 Noroeste 23 Noroeste 0 908.6 -- 38
2020-10-10 16:00:00 20 11 Noroeste 26 Noroeste 0 908.7 -- 35
2020-10-10 15:00:00 20 10 Noroeste 28 Norte 0 909.5 -- 37
2020-10-10 14:00:00 20 11 Noroeste 29 Noroeste 0 909.6 -- 37
2020-10-10 13:00:00 20.2 5 Nordeste 19 Nordeste 0 910.1 -- 40
2020-10-10 12:00:00 18.9 6 Sudeste 12 Sudeste 0 910 -- 44
2020-10-10 11:00:00 15.4 3 Oeste 8 Oeste 0 909.9 -- 56
2020-10-10 10:00:00 12 4 Oeste 8 Sudoeste 0 909.6 -- 68
2020-10-10 09:00:00 8.2 3 Noroeste 6 Oeste 0 909.6 -- 77
2020-10-10 08:00:00 8.3 2 Sudeste 12 Noroeste 0 909.4 -- 74
2020-10-10 07:00:00 8.2 0 Calma 10 Oeste 0 909.1 -- 76
2020-10-10 06:00:00 7.6 4 Noroeste 9 Oeste 0 908.7 -- 76
2020-10-10 05:00:00 8.3 5 Noroeste 9 Oeste 0 908.7 -- 76
2020-10-10 04:00:00 8.4 4 Oeste 9 Oeste 0 909.1 -- 76
2020-10-10 03:00:00 9 0 Calma 8 Oeste 0 909.3 -- 70
2020-10-10 02:00:00 10 3 Oeste 9 Oeste 0 909.3 -- 70
2020-10-10 01:00:00 10.1 0 Calma 6 Oeste 0 909.7 -- 67
2020-10-10 00:00:00 10.6 5 Oeste 8 Oeste 0 909.7 -- 67
2020-10-09 23:00:00 10.7 2 Oeste 4 Oeste 0 909.5 -- 63
2020-10-09 22:00:00 12.1 0 Calma 6 Noroeste 0 909.2 -- 55
2020-10-09 21:00:00 14 3 Nordeste 7 Noroeste 0 909.1 -- 46
2020-10-09 20:00:00 17.6 6 Noroeste 12 Noroeste 0 908.8 -- 34
2020-10-09 19:00:00 22.2 5 Noroeste 25 Oeste 0 908.8 -- 25
2020-10-09 18:00:00 23.1 8 Noroeste 22 Oeste 0 908.4 -- 24
2020-10-09 17:00:00 23.4 11 Noroeste 20 Oeste 0 908.2 -- 25
2020-10-09 16:00:00 24.2 3 Sudoeste 13 Sudeste 0 908.6 -- 27
2020-10-09 15:00:00 23.4 2 Este 12 Este 0 909 -- 30
2020-10-09 14:00:00 22.3 5 Este 14 Este 0 909.5 -- 33
2020-10-09 13:00:00 21.5 3 Este 12 Este 0 909.6 -- 35
2020-10-09 12:00:00 19.3 0 Calma 6 Sur 0 909.8 -- 43
2020-10-09 11:00:00 15.9 3 Oeste 7 Oeste 0 909.9 -- 54
2020-10-09 10:00:00 11.7 4 Oeste 9 Oeste 0 909.6 -- 72
2020-10-09 09:00:00 8 0 Calma 5 Noroeste 0 909.4 -- 85
2020-10-09 08:00:00 7.9 0 Calma 6 Noroeste 0 909 -- 85
2020-10-09 07:00:00 7.9 3 Oeste 6 Oeste 0 908.8 -- 85
2020-10-09 06:00:00 8.7 0 Calma 9 Oeste 0 908.5 -- 84
2020-10-09 05:00:00 9 4 Noroeste 8 Noroeste 0 908.9 -- 85
2020-10-09 04:00:00 9 0 Calma 3 Noroeste 0 908.8 -- 84
2020-10-09 03:00:00 10.2 2 Noroeste 6 Oeste 0 909.2 -- 85
2020-10-09 02:00:00 9.5 2 Noroeste 3 Oeste 0 909.2 -- 84
2020-10-09 01:00:00 10.2 0 Calma 4 Noroeste 0 909.4 -- 82
2020-10-09 00:00:00 10.9 0 Calma 4 Noroeste 0 909.7 -- 79
2020-10-08 23:00:00 12 0 Calma 4 Noroeste 0 909.5 -- 76
2020-10-08 22:00:00 12.9 0 Calma 5 Noroeste 0 909.5 -- 73
2020-10-08 21:00:00 15.1 0 Calma 8 Noroeste 0 909.3 -- 63
2020-10-08 20:00:00 17.3 6 Noroeste 9 Noroeste 0 909.2 -- 53
2020-10-08 19:00:00 20.5 0 Calma 10 Sudeste 0 908.9 -- 44
2020-10-08 18:00:00 21.1 5 Este 13 Sudeste 0 908.8 -- 41
2020-10-08 17:00:00 21.1 6 Sudeste 14 Sudeste 0 908.7 -- 41
2020-10-08 16:00:00 21 5 Sudeste 21 Este 0 908.8 -- 42
2020-10-08 15:00:00 21.3 3 Sudeste 15 Este 0 909.4 -- 42
2020-10-08 14:00:00 20.3 3 Este 11 Sudeste 0 909.9 -- 43
2020-10-08 13:00:00 19.7 6 Sudeste 14 Sudeste 0 910.6 -- 45
2020-10-08 12:00:00 19.6 3 Sur 9 Este 0 910.8 -- 49
2020-10-08 11:00:00 16.9 0 Calma 2 Sudeste 0 910.6 -- 60
2020-10-08 10:00:00 12.7 0 Calma 3 Oeste 0 910.5 -- 77
2020-10-08 09:00:00 9.2 0 Calma 6 Oeste 0 910.3 -- 87
2020-10-08 08:00:00 7.6 0 Calma 6 Noroeste 0 909.9 -- 87
2020-10-08 07:00:00 7.9 0 Calma 4 Oeste 0 909.8 -- 86
2020-10-08 06:00:00 8.4 3 Noroeste 5 Noroeste 0 909.7 -- 85
2020-10-08 05:00:00 8.7 0 Calma 7 Oeste 0 909.8 -- 85
2020-10-08 04:00:00 9.4 4 Noroeste 7 Oeste 0 910 -- 86
2020-10-08 03:00:00 8.9 0 Calma 4 Oeste 0 910.3 -- 84
2020-10-08 02:00:00 9.7 2 Noroeste 4 Noroeste 0 910.6 -- 83
2020-10-08 01:00:00 10.7 2 Noroeste 8 Oeste 0 910.7 -- 82
2020-10-08 00:00:00 10.9 0 Calma 3 Oeste 0 910.8 -- 79
2020-10-07 23:00:00 12 0 Calma 4 Noroeste 0 910.7 -- 76
2020-10-07 22:00:00 13.1 0 Calma 6 Oeste 0 910.1 -- 70
2020-10-07 21:00:00 15.5 0 Calma 7 Nordeste 0 909.9 -- 57
2020-10-07 20:00:00 19.1 2 Nordeste 12 Este 0 909.6 -- 45
2020-10-07 19:00:00 21.9 6 Este 13 Este 0 909.1 -- 41
2020-10-07 18:00:00 22.4 6 Sudeste 16 Sudeste 0 909.1 -- 39
2020-10-07 17:00:00 23.3 0 Calma 12 Sur 0 909.2 -- 35
2020-10-07 16:00:00 23.5 0 Calma 12 Oeste 0 909.6 -- 36
2020-10-07 15:00:00 22.9 3 Noroeste 15 Nordeste 0 910 -- 38
2020-10-07 14:00:00 21.6 4 Norte 15 Noroeste 0 910.6 -- 42
2020-10-07 13:00:00 20.5 7 Noroeste 19 Noroeste 0 910.9 -- 45
2020-10-07 12:00:00 19.3 5 Noroeste 12 Oeste 0 911.1 -- 50
2020-10-07 11:00:00 17.4 3 Sudoeste 17 Norte 0 910.9 -- 56
2020-10-07 10:00:00 16.7 9 Nordeste 19 Norte 0 910.1 -- 60
2020-10-07 09:00:00 13.3 4 Norte 12 Noroeste 0 909.9 -- 68
2020-10-07 08:00:00 12.3 2 Sudeste 24 Noroeste 0 909.7 -- 68
2020-10-07 07:00:00 14.7 8 Noroeste 31 Noroeste 0 909.8 -- 63
2020-10-07 06:00:00 14.6 15 Noroeste 31 Noroeste 0 909.3 -- 64
2020-10-07 05:00:00 -- -- -- -- -- -- -- -- --
2020-10-07 04:00:00 14.4 5 Sudoeste 27 Noroeste 0 909.4 -- 61
2020-10-07 03:00:00 14.4 14 Noroeste 25 Noroeste 0 909.2 -- 61
2020-10-07 02:00:00 15.2 12 Noroeste 18 Noroeste 0 909.9 -- 61
2020-10-07 01:00:00 15.4 6 Noroeste 12 Noroeste 0 909.9 -- 59
2020-10-07 00:00:00 16.1 6 Oeste 10 Noroeste 0 909.8 -- 58
2020-10-06 23:00:00 16.8 0 Calma 11 Noroeste 0 909.8 -- 58
2020-10-06 22:00:00 16.7 0 Calma 10 Nordeste 0 909.3 -- 63
2020-10-06 21:00:00 16.8 2 Norte 7 Nordeste 0 908.9 -- 62
2020-10-06 20:00:00 18.3 0 Calma 12 Sudoeste 0 908.8 -- 54
2020-10-06 19:00:00 20 4 Oeste 14 Noroeste 0 908.6 -- 47
2020-10-06 18:00:00 19.6 6 Nordeste 13 Noroeste 0 908.4 -- 50
2020-10-06 17:00:00 19.5 5 Oeste 20 Noroeste 0 908.7 -- 48
2020-10-06 16:00:00 19.4 9 Noroeste 25 Noroeste 0 909 -- 48
2020-10-06 15:00:00 19.5 8 Noroeste 23 Oeste 0 909.1 -- 50
2020-10-06 14:00:00 19.7 0 Calma 17 Nordeste 0 909.4 -- 50
2020-10-06 13:00:00 19.2 4 Nordeste 13 Nordeste 0 909.1 -- 51
2020-10-06 12:00:00 18.3 5 Norte 13 Nordeste 0 909.4 -- 56
2020-10-06 11:00:00 15.3 0 Calma 9 Norte 0 909.5 -- 73
2020-10-06 10:00:00 10.5 3 Oeste 11 Noroeste 0 908.9 -- 83
2020-10-06 09:00:00 9.2 0 Calma 7 Noroeste 0 908.5 -- 83
2020-10-06 08:00:00 9.4 3 Noroeste 11 Oeste 0 907.9 -- 83
2020-10-06 07:00:00 9.3 2 Sur 5 Sur 0 907 -- 80
2020-10-06 06:00:00 10.8 4 Noroeste 9 Noroeste 0 906.9 -- 75
2020-10-06 05:00:00 12.3 4 Nordeste 9 Nordeste 0 906.9 -- 73
2020-10-06 04:00:00 10.8 2 Sur 12 Oeste 0 907.1 -- 73
2020-10-06 03:00:00 10.4 0 Calma 11 Oeste 0 907.4 -- 72
2020-10-06 02:00:00 10.6 2 Sudeste 6 Sudeste 0 907.1 -- 66
2020-10-06 01:00:00 11.8 0 Calma 12 Noroeste 0 907.1 -- 60
2020-10-06 00:00:00 12.9 5 Norte 9 Norte 0 907.2 -- 55
2020-10-05 23:00:00 12.3 0 Calma 7 Nordeste 0 906.9 -- 55
2020-10-05 22:00:00 11.2 4 Nordeste 9 Noroeste 0 906.6 -- 55
2020-10-05 21:00:00 11.3 0 Calma 11 Norte 0 905.9 -- 50
2020-10-05 20:00:00 13.2 0 Calma 17 Oeste 0 905.6 -- 43
2020-10-05 19:00:00 14.9 8 Oeste 30 Noroeste 0 905.2 -- 40
2020-10-05 18:00:00 14.8 12 Noroeste 26 Noroeste 0 905.2 -- 41
2020-10-05 17:00:00 14.5 13 Oeste 30 Oeste 0 904.6 -- 41
2020-10-05 16:00:00 14.6 13 Oeste 28 Oeste 0 904.3 -- 41
2020-10-05 15:00:00 14.2 11 Noroeste 28 Oeste 0 904.2 -0.1 43
2020-10-05 14:00:00 12.5 9 Oeste 24 Oeste 0 904.6 0.8 47
2020-10-05 13:00:00 11.9 11 Oeste 23 Noroeste 0 904.8 1.8 51
2020-10-05 12:00:00 11.6 10 Noroeste 30 Noroeste 0 904.3 -- 53
2020-10-05 11:00:00 10.4 14 Noroeste 27 Oeste 0 903.8 -- 55
2020-10-05 10:00:00 10.7 9 Noroeste 20 Noroeste 0 903 -- 56
2020-10-05 09:00:00 8.7 7 Oeste 18 Oeste 0 902.4 -- 61
2020-10-05 08:00:00 8.7 9 Oeste 25 Noroeste 0 901.8 -- 60
2020-10-05 07:00:00 8.3 5 Noroeste 26 Oeste 0 901.1 -- 63
2020-10-05 06:00:00 8.5 9 Noroeste 28 Oeste 0 900.9 -- 61
2020-10-05 05:00:00 8.7 10 Oeste 33 Noroeste 0 900.1 -- 60
2020-10-05 04:00:00 9.2 8 Oeste 29 Sudoeste 0 900.2 -- 59
2020-10-05 03:00:00 9.3 10 Oeste 33 Noroeste 0 900.2 -- 60
2020-10-05 02:00:00 10.4 10 Oeste 30 Oeste 0 899.7 -- 57
2020-10-05 01:00:00 10.6 9 Oeste 28 Oeste 0 899.6 -- 57
2020-10-05 00:00:00 10.7 15 Oeste 30 Noroeste 0 899.5 -- 56
2020-10-04 23:00:00 10.8 13 Oeste 27 Oeste 0 899.5 -- 55
2020-10-04 22:00:00 11.2 8 Oeste 30 Oeste 0 898.8 -- 52
2020-10-04 21:00:00 11.7 8 Oeste 38 Noroeste 0 898.1 -- 50
2020-10-04 20:00:00 12 14 Oeste 40 Noroeste 0 897.4 -- 48
2020-10-04 19:00:00 12.7 14 Oeste 40 Noroeste 0 896.7 -- 45
2020-10-04 18:00:00 12.9 18 Oeste 39 Oeste 0 896.2 -- 45
2020-10-04 17:00:00 13.8 19 Oeste 52 Noroeste 0 896 -- 42
2020-10-04 16:00:00 14 20 Oeste 42 Noroeste 0 895.6 -- 42
2020-10-04 15:00:00 14.2 19 Oeste 43 Noroeste 0 895.9 -- 45
2020-10-04 14:00:00 13.2 18 Oeste 45 Noroeste 0 895.8 -- 50
2020-10-04 13:00:00 12.7 17 Oeste 44 Oeste 0 895.6 -- 52
2020-10-04 12:00:00 10.9 14 Oeste 51 Oeste 0.5 895.2 -- 70
2020-10-04 11:00:00 11 18 Oeste 46 Oeste 0 894.4 -- 68
2020-10-04 10:00:00 8.7 2 Norte 9 Este 0 894.7 -- 68
2020-10-04 09:00:00 8.4 5 Este 11 Este 0 894.4 -- 67
2020-10-04 08:00:00 8.4 4 Nordeste 8 Sur 0 894.3 -- 67
2020-10-04 07:00:00 8.5 0 Calma 13 Oeste 0 895 -- 63
2020-10-04 06:00:00 8.5 5 Oeste 16 Sudoeste 0 895.3 -- 64
2020-10-04 05:00:00 7.7 2 Oeste 9 Oeste 0 895.5 -- 62
2020-10-04 04:00:00 8.7 0 Calma 7 Nordeste 0 895.9 -- 60
2020-10-04 03:00:00 8.9 0 Calma 9 Sudoeste 0 896.3 -- 57
2020-10-04 02:00:00 9.5 0 Calma 8 Oeste 0 896.8 -- 55
2020-10-04 01:00:00 9.8 6 Oeste 26 Oeste 0 896.9 -- 53
2020-10-04 00:00:00 10.3 6 Oeste 25 Noroeste 0 897.1 -- 50
2020-10-03 23:00:00 10.4 9 Noroeste 32 Oeste 0 896.9 -- 47
2020-10-03 22:00:00 10.5 13 Oeste 35 Oeste 0 896.5 -- 46
2020-10-03 21:00:00 10.6 14 Oeste 35 Noroeste 0 895.9 -- 43
2020-10-03 20:00:00 10.6 10 Oeste 25 Oeste 0 895.5 -- 45
2020-10-03 19:00:00 10.8 6 Oeste 28 Oeste 0 895.6 -- 43
2020-10-03 18:00:00 11.9 13 Oeste 36 Sudoeste 0 896 -- 41
2020-10-03 17:00:00 11.8 11 Oeste 35 Sudoeste 0 895.6 -- 43
2020-10-03 16:00:00 12.1 9 Sudoeste 30 Oeste 0 895.4 -- 43
2020-10-03 15:00:00 12.4 8 Noroeste 30 Oeste 0 894.9 -- 45
2020-10-03 14:00:00 12.2 11 Noroeste 27 Noroeste 0 894.8 -- 43
2020-10-03 13:00:00 10.8 6 Noroeste 47 Oeste 0 894.5 -- 46
2020-10-03 12:00:00 10.2 18 Noroeste 41 Noroeste 0 893.8 -- 47
2020-10-03 11:00:00 9.2 14 Oeste 36 Sudoeste 0 893.5 -- 51
2020-10-03 10:00:00 8.2 16 Oeste 44 Oeste 0 893.1 -- 59
2020-10-03 09:00:00 7.1 9 Oeste 25 Oeste 0 892.2 -- 62
2020-10-03 08:00:00 6.3 11 Sudoeste 35 Oeste 0 891.9 -- 62
2020-10-03 07:00:00 6.1 5 Oeste 23 Oeste 0 891.7 -- 62
2020-10-03 06:00:00 6.5 6 Sudoeste 25 Sudoeste 0 891.1 -- 62
2020-10-03 05:00:00 6.6 11 Oeste 44 Oeste 0 890.7 -- 63
2020-10-03 04:00:00 6.5 19 Oeste 45 Oeste 0 890.4 -- 64
2020-10-03 03:00:00 6.8 14 Oeste 31 Oeste 0 890.5 -- 62
2020-10-03 02:00:00 6.9 6 Oeste 40 Oeste 0 890.2 -- 61
2020-10-03 01:00:00 6.5 20 Oeste 43 Oeste 0 889.5 -- 60
2020-10-03 00:00:00 6.9 12 Oeste 35 Oeste 0 889.2 -- 57
2020-10-02 23:00:00 7.7 13 Oeste 43 Oeste 0 888.8 -- 55
2020-10-02 22:00:00 7.7 10 Sudoeste 40 Oeste 0 887.7 -- 54
2020-10-02 21:00:00 8.1 16 Oeste 46 Noroeste 0 887.6 -- 53
2020-10-02 20:00:00 8.4 18 Oeste 47 Oeste 0 887.2 -- 53
2020-10-02 19:00:00 9.2 20 Noroeste 46 Noroeste 0 886.1 -- 49
2020-10-02 18:00:00 8.6 17 Oeste 50 Oeste 0.1 885.6 -- 52
2020-10-02 17:00:00 10.2 20 Noroeste 45 Oeste 0.1 885 -- 48
2020-10-02 16:00:00 11.1 25 Oeste 49 Noroeste 0.2 884.2 -- 47
2020-10-02 15:00:00 9.9 23 Oeste 49 Oeste 0 884 -- 54
2020-10-02 14:00:00 8.5 20 Oeste 54 Noroeste 0 884.5 -- 64
2020-10-02 13:00:00 7.2 27 Noroeste 62 Noroeste 3.1 883.5 -- 77
2020-10-02 12:00:00 9 26 Noroeste 60 Noroeste 2.8 883 -- 77
2020-10-02 11:00:00 10.5 18 Oeste 85 Oeste 3.9 883.3 -- 76
2020-10-02 10:00:00 10.2 34 Oeste 72 Noroeste 4 882.6 -- 75
2020-10-02 09:00:00 12.1 2 Nordeste 28 Noroeste 1.5 882.4 -- 81
2020-10-02 08:00:00 14.8 12 Sudoeste 42 Oeste 0.1 883.1 -- 64
2020-10-02 07:00:00 15.2 13 Sudoeste 36 Oeste 0 884.5 -- 62
2020-10-02 06:00:00 14.7 13 Sudoeste 39 Sudoeste 0.1 885.9 -- 64
2020-10-02 05:00:00 15.1 13 Sur 38 Sudoeste 0 887.5 -- 60
2020-10-02 04:00:00 14.4 17 Sur 35 Sur 0 888.9 -- 60
2020-10-02 03:00:00 14.6 13 Sudoeste 30 Sudoeste 0 891 -- 54
2020-10-02 02:00:00 14.3 8 Oeste 21 Sudoeste 0 891.9 -- 52
2020-10-02 01:00:00 13.9 3 Este 15 Oeste 0 893.4 -- 50
2020-10-02 00:00:00 14 4 Oeste 15 Oeste 0 894.7 -- 50
2020-10-01 23:00:00 14.7 9 Oeste 31 Oeste 0 895.4 -- 47
2020-10-01 22:00:00 13.4 2 Este 11 Noroeste 0 895.7 -- 49
2020-10-01 21:00:00 14.1 2 Noroeste 14 Oeste 0 896 -- 46
2020-10-01 20:00:00 15 0 Calma 14 Sudoeste 0 896.6 -- 43
2020-10-01 19:00:00 17.7 8 Oeste 21 Oeste 0 896.2 -- 37
2020-10-01 18:00:00 18.7 7 Oeste 24 Sudoeste 0 896.4 -- 35
2020-10-01 17:00:00 18.4 6 Oeste 18 Oeste 0 897.2 -- 35
2020-10-01 16:00:00 17.8 8 Oeste 21 Oeste 0 898.1 -- 43
2020-10-01 15:00:00 16.8 4 Oeste 25 Oeste 0 898.5 -- 51
2020-10-01 14:00:00 16.5 12 Oeste 28 Oeste 0 899.4 -- 52
2020-10-01 13:00:00 16.8 12 Noroeste 24 Oeste 0 899.9 -- 54
2020-10-01 12:00:00 16.2 7 Sudoeste 21 Oeste 0 900.1 -- 57
2020-10-01 11:00:00 14 6 Oeste 25 Oeste 0 900 -- 64
2020-10-01 10:00:00 13.8 11 Oeste 25 Noroeste 0 900.1 -- 64
2020-10-01 09:00:00 13.3 0 Calma 30 Noroeste 0 899.5 -- 62
2020-10-01 08:00:00 12.7 4 Oeste 21 Sudoeste 0 899.5 -- 59
2020-10-01 07:00:00 11.6 3 Norte 12 Norte 0 899.3 -- 60
2020-10-01 06:00:00 10.1 0 Calma 6 Noroeste 0 899.1 -- 77
2020-10-01 05:00:00 10.6 0 Calma 9 Sur 0 899.5 -- 73
2020-10-01 04:00:00 12 0 Calma 9 Nordeste 0 900.3 -- 66
2020-10-01 03:00:00 12.2 5 Noroeste 10 Sudoeste 0 900.6 -- 63
2020-10-01 02:00:00 14.5 3 Noroeste 14 Noroeste 0 901.3 -- 54
2020-10-01 01:00:00 12.1 5 Oeste 9 Noroeste 0 901.3 -- 60
2020-10-01 00:00:00 11.4 0 Calma 7 Oeste 0 901.6 -- 58